createdAt,value
2023-01-31T00:01:30.696Z,5.85
2023-01-31T00:04:03.206Z,4.43
2023-01-31T00:06:37.362Z,7.13
2023-01-31T00:09:05.735Z,5.90
2023-01-31T00:11:33.063Z,5.75
2023-01-31T00:14:01.020Z,4.38
2023-01-31T00:16:28.041Z,7.13
2023-01-31T00:18:54.754Z,5.00
2023-01-31T00:21:26.719Z,6.53
2023-01-31T00:23:55.532Z,4.15
2023-01-31T00:26:28.078Z,4.93
2023-01-31T00:28:55.922Z,4.93
2023-01-31T00:31:25.379Z,6.97
2023-01-31T00:33:54.108Z,9.25
2023-01-31T00:36:23.580Z,9.90
2023-01-31T00:38:51.968Z,6.25
2023-01-31T00:41:20.465Z,6.60
2023-01-31T00:43:47.220Z,5.90
2023-01-31T00:46:14.656Z,5.07
2023-01-31T00:48:41.774Z,10.38
2023-01-31T00:51:09.424Z,7.90
2023-01-31T00:53:36.044Z,6.90
2023-01-31T00:56:08.481Z,6.20
2023-01-31T00:58:36.741Z,9.20
2023-01-31T01:01:14.981Z,4.65
2023-01-31T01:03:43.308Z,6.75
2023-01-31T01:06:10.663Z,6.50
2023-01-31T01:08:38.633Z,4.68
2023-01-31T01:11:16.612Z,8.73
2023-01-31T01:13:44.224Z,7.72
2023-01-31T01:16:16.625Z,7.78
2023-01-31T01:18:46.447Z,6.93
2023-01-31T01:21:15.713Z,5.75
2023-01-31T01:23:43.281Z,2.97
2023-01-31T01:26:15.477Z,4.00
2023-01-31T01:28:42.644Z,6.97
2023-01-31T01:31:11.846Z,5.07
2023-01-31T01:33:39.263Z,5.43
2023-01-31T01:36:09.212Z,5.50
2023-01-31T01:38:37.293Z,5.68
2023-01-31T01:41:04.975Z,6.35
2023-01-31T01:43:49.179Z,7.95
2023-01-31T01:46:23.137Z,2.47
2023-01-31T01:48:53.196Z,7.00
2023-01-31T01:51:21.504Z,8.07
2023-01-31T01:53:53.312Z,5.22
2023-01-31T01:56:31.992Z,9.48
2023-01-31T01:59:08.229Z,8.63
2023-01-31T02:01:38.540Z,6.10
2023-01-31T02:04:10.467Z,10.57
2023-01-31T02:06:37.745Z,10.77
2023-01-31T02:09:09.437Z,8.60
2023-01-31T02:11:36.866Z,6.88
2023-01-31T02:14:07.212Z,8.45
2023-01-31T02:16:34.389Z,6.85
2023-01-31T02:19:01.319Z,5.88
2023-01-31T02:21:52.252Z,5.10
2023-01-31T02:24:27.503Z,8.57
2023-01-31T02:27:17.162Z,6.97
2023-01-31T02:30:02.132Z,11.45
2023-01-31T02:32:32.398Z,5.47
2023-01-31T02:35:25.715Z,7.20
2023-01-31T02:38:12.047Z,6.00
2023-01-31T02:44:22.435Z,9.65
2023-01-31T02:46:59.897Z,6.32
2023-01-31T02:49:49.741Z,6.25
2023-01-31T02:52:31.702Z,8.55
2023-01-31T02:55:20.742Z,8.27
2023-01-31T02:57:57.846Z,7.70
2023-01-31T03:00:34.406Z,8.52
2023-01-31T03:03:08.420Z,5.53
2023-01-31T03:05:38.163Z,5.45
2023-01-31T03:08:10.027Z,8.95
2023-01-31T03:10:57.465Z,11.30
2023-01-31T03:14:04.132Z,8.82
2023-01-31T03:19:36.520Z,9.25
2023-01-31T03:22:08.889Z,8.65
2023-01-31T03:24:36.945Z,7.60
2023-01-31T03:27:07.812Z,11.50
2023-01-31T03:29:44.173Z,12.00
2023-01-31T03:32:36.771Z,6.82
2023-01-31T03:35:07.379Z,9.05
2023-01-31T03:37:44.910Z,15.25
2023-01-31T03:40:24.947Z,10.48
2023-01-31T03:43:08.216Z,14.20
2023-01-31T03:45:55.590Z,11.82
2023-01-31T03:48:34.823Z,15.25
2023-01-31T03:51:09.804Z,12.35
2023-01-31T03:54:12.319Z,12.07
2023-01-31T03:56:52.660Z,15.30
2023-01-31T03:59:27.074Z,10.02
2023-01-31T04:01:59.998Z,12.80
2023-01-31T04:04:42.923Z,13.23
2023-01-31T04:07:13.501Z,8.45
2023-01-31T04:10:00.207Z,11.80
2023-01-31T04:12:29.943Z,14.32
2023-01-31T04:14:57.204Z,11.90
2023-01-31T04:17:24.564Z,8.82
2023-01-31T04:19:51.928Z,10.65
2023-01-31T04:22:21.751Z,17.27
2023-01-31T04:24:54.064Z,11.85
2023-01-31T04:27:24.516Z,13.75
2023-01-31T04:29:54.410Z,13.90
2023-01-31T04:32:23.727Z,8.40
2023-01-31T04:34:53.956Z,9.02
2023-01-31T04:37:26.915Z,9.20
2023-01-31T04:39:58.629Z,12.63
2023-01-31T04:42:29.230Z,9.55
2023-01-31T04:45:02.063Z,12.70
2023-01-31T04:47:32.964Z,10.80
2023-01-31T04:50:01.214Z,11.68
2023-01-31T04:52:31.727Z,11.77
2023-01-31T04:55:03.647Z,9.75
2023-01-31T04:57:39.507Z,11.48
2023-01-31T05:02:36.270Z,8.43
2023-01-31T05:05:14.400Z,10.82
2023-01-31T05:07:44.503Z,12.27
2023-01-31T05:10:14.622Z,13.30
2023-01-31T05:12:46.232Z,12.77
2023-01-31T05:15:19.744Z,13.93
2023-01-31T05:17:53.396Z,11.60
2023-01-31T05:20:21.253Z,12.30
2023-01-31T05:22:59.504Z,16.52
2023-01-31T05:25:29.812Z,12.65
2023-01-31T05:27:57.236Z,10.45
2023-01-31T05:30:27.761Z,13.80
2023-01-31T05:32:55.996Z,14.77
2023-01-31T05:35:23.473Z,16.65
2023-01-31T05:37:56.845Z,15.27
2023-01-31T05:40:24.295Z,9.32
2023-01-31T05:42:59.094Z,17.75
2023-01-31T05:45:29.751Z,17.52
2023-01-31T05:47:57.467Z,16.05
2023-01-31T05:50:26.044Z,12.68
2023-01-31T05:52:57.402Z,13.40
2023-01-31T05:55:33.785Z,10.23
2023-01-31T05:58:03.581Z,15.48
2023-01-31T06:00:32.271Z,14.52
2023-01-31T06:03:01.183Z,17.75
2023-01-31T06:05:30.943Z,13.55
2023-01-31T06:08:00.252Z,11.80
2023-01-31T06:10:29.619Z,10.95
2023-01-31T06:12:59.867Z,13.73
2023-01-31T06:15:27.992Z,7.95
2023-01-31T06:17:56.075Z,16.88
2023-01-31T06:20:29.677Z,11.18
2023-01-31T06:23:03.617Z,11.50
2023-01-31T06:25:33.085Z,11.18
2023-01-31T06:28:05.636Z,11.15
2023-01-31T06:30:34.545Z,9.95
2023-01-31T06:33:06.386Z,9.20
2023-01-31T06:35:40.450Z,9.45
2023-01-31T06:40:53.537Z,7.13
2023-01-31T06:43:23.117Z,7.03
2023-01-31T06:46:29.744Z,8.63
2023-01-31T06:49:03.452Z,6.00
2023-01-31T06:51:30.715Z,9.68
2023-01-31T06:53:59.685Z,7.72
2023-01-31T06:56:27.564Z,18.75
2023-01-31T06:58:57.448Z,7.32
2023-01-31T07:01:27.176Z,14.20
2023-01-31T07:04:04.569Z,6.50
2023-01-31T07:06:34.049Z,8.70
2023-01-31T07:09:00.822Z,9.93
2023-01-31T07:11:27.537Z,8.70
2023-01-31T07:14:02.832Z,8.85
2023-01-31T07:16:30.171Z,10.70
2023-01-31T07:19:00.137Z,8.75
2023-01-31T07:21:28.847Z,6.60
2023-01-31T07:23:58.108Z,5.60
2023-01-31T07:26:29.871Z,7.68
2023-01-31T07:28:58.037Z,6.13
2023-01-31T07:31:28.426Z,6.80
2023-01-31T07:33:56.204Z,5.13
2023-01-31T07:36:26.710Z,12.93
2023-01-31T07:38:58.566Z,4.05
2023-01-31T07:41:27.447Z,6.85
2023-01-31T07:44:01.127Z,4.97
2023-01-31T07:46:32.650Z,7.50
2023-01-31T07:49:00.177Z,8.52
2023-01-31T07:51:33.304Z,11.05
2023-01-31T07:54:02.472Z,6.10
2023-01-31T07:56:33.218Z,5.53
2023-01-31T07:59:02.988Z,5.43
2023-01-31T08:01:50.720Z,6.15
2023-01-31T08:04:23.394Z,7.03
2023-01-31T08:06:55.462Z,5.05
2023-01-31T08:09:26.892Z,6.28
2023-01-31T08:11:57.505Z,7.18
2023-01-31T08:14:31.080Z,3.78
2023-01-31T08:17:01.717Z,4.50
2023-01-31T08:19:29.433Z,6.07
2023-01-31T08:21:59.336Z,4.07
2023-01-31T08:24:32.769Z,3.78
2023-01-31T08:27:05.065Z,4.60
2023-01-31T08:29:33.766Z,2.90
2023-01-31T08:32:05.598Z,4.28
2023-01-31T08:34:35.940Z,4.25
2023-01-31T08:37:10.466Z,3.88
2023-01-31T08:39:43.714Z,4.68
2023-01-31T08:42:10.997Z,5.25
2023-01-31T08:44:43.448Z,6.25
2023-01-31T08:47:10.944Z,4.20
2023-01-31T08:49:40.261Z,6.15
2023-01-31T08:52:09.738Z,5.65
2023-01-31T08:54:38.803Z,4.18
2023-01-31T08:57:08.152Z,4.88
2023-01-31T08:59:35.026Z,4.78
2023-01-31T09:02:02.585Z,6.55
2023-01-31T09:04:32.372Z,5.07
2023-01-31T09:06:59.827Z,4.78
2023-01-31T09:09:30.712Z,4.10
2023-01-31T09:11:58.047Z,9.13
2023-01-31T09:14:26.956Z,2.78
2023-01-31T09:16:55.281Z,4.38
2023-01-31T09:19:23.642Z,6.43
2023-01-31T09:21:52.251Z,4.47
2023-01-31T09:24:19.843Z,3.97
2023-01-31T09:26:50.230Z,3.65
2023-01-31T09:29:23.610Z,4.15
2023-01-31T09:31:58.990Z,2.83
2023-01-31T09:34:28.837Z,3.65
2023-01-31T09:37:00.477Z,3.63
2023-01-31T09:39:30.824Z,3.25
2023-01-31T09:42:18.322Z,4.13
2023-01-31T09:45:07.626Z,3.22
2023-01-31T09:47:45.696Z,2.72
2023-01-31T09:50:21.341Z,4.40
2023-01-31T09:52:52.380Z,4.85
2023-01-31T09:56:01.138Z,5.03
2023-01-31T09:58:37.305Z,4.30
2023-01-31T10:01:23.805Z,4.55
2023-01-31T10:04:25.087Z,5.05
2023-01-31T10:06:58.575Z,4.95
2023-01-31T10:09:43.439Z,2.30
2023-01-31T10:12:54.602Z,3.80
2023-01-31T10:15:29.273Z,4.28
2023-01-31T10:18:18.178Z,3.33
2023-01-31T10:20:53.097Z,4.10
2023-01-31T10:23:26.281Z,3.53
2023-01-31T10:26:24.597Z,4.38
2023-01-31T10:29:29.496Z,3.58
2023-01-31T10:32:05.595Z,2.70
2023-01-31T10:37:48.269Z,2.90
2023-01-31T10:40:22.423Z,2.90
2023-01-31T10:42:58.710Z,2.72
2023-01-31T10:45:33.857Z,4.50
2023-01-31T10:48:27.403Z,4.68
2023-01-31T10:51:22.454Z,4.53
2023-01-31T10:54:17.269Z,1.90
2023-01-31T10:56:50.796Z,3.85
2023-01-31T10:59:28.041Z,5.28
2023-01-31T11:01:58.802Z,2.45
2023-01-31T11:04:44.289Z,4.47
2023-01-31T11:07:15.460Z,2.20
2023-01-31T11:09:48.996Z,5.10
2023-01-31T11:12:17.401Z,2.28
2023-01-31T11:14:45.296Z,5.25
2023-01-31T11:17:24.302Z,3.72
2023-01-31T11:19:54.858Z,5.22
2023-01-31T11:22:37.748Z,1.95
2023-01-31T11:25:11.306Z,5.30
2023-01-31T11:27:48.513Z,4.93
2023-01-31T11:30:39.203Z,4.50
2023-01-31T11:33:11.692Z,3.72
2023-01-31T11:35:40.575Z,4.72
2023-01-31T11:38:34.009Z,3.25
2023-01-31T11:41:01.578Z,3.63
2023-01-31T11:43:37.456Z,3.70
2023-01-31T11:48:42.346Z,2.80
2023-01-31T11:51:26.950Z,4.38
2023-01-31T11:53:54.499Z,3.97
2023-01-31T11:56:27.825Z,2.47
2023-01-31T11:59:02.976Z,3.42
2023-01-31T12:01:35.971Z,2.90
2023-01-31T12:04:12.773Z,4.85
2023-01-31T12:06:44.071Z,5.47
2023-01-31T12:09:30.498Z,5.55
2023-01-31T12:12:05.858Z,1.60
2023-01-31T12:14:45.635Z,3.25
2023-01-31T12:17:15.677Z,2.35
2023-01-31T12:20:26.997Z,3.55
2023-01-31T12:23:20.119Z,2.50
2023-01-31T12:26:12.325Z,2.75
2023-01-31T12:29:03.040Z,2.65
2023-01-31T12:32:01.783Z,4.38
2023-01-31T12:35:00.747Z,7.78
2023-01-31T12:37:42.831Z,4.22
2023-01-31T12:40:30.928Z,2.97
2023-01-31T12:43:04.539Z,1.80
2023-01-31T12:45:37.443Z,3.35
2023-01-31T12:48:12.315Z,3.85
2023-01-31T12:50:54.346Z,2.53
2023-01-31T12:53:47.001Z,3.38
2023-01-31T12:56:23.337Z,2.33
2023-01-31T12:59:15.917Z,1.60
2023-01-31T13:01:57.787Z,2.00
2023-01-31T13:04:48.510Z,2.88
2023-01-31T13:07:20.471Z,3.78
2023-01-31T13:09:55.103Z,2.72
2023-01-31T13:12:27.685Z,3.15
2023-01-31T13:15:20.455Z,3.45
2023-01-31T13:17:56.603Z,2.80
2023-01-31T13:20:43.443Z,4.82
2023-01-31T13:23:27.082Z,2.22
2023-01-31T13:26:02.300Z,2.28
2023-01-31T13:28:38.355Z,3.28
2023-01-31T13:31:14.260Z,2.30
2023-01-31T13:33:54.209Z,2.53
2023-01-31T13:36:33.261Z,3.72
2023-01-31T13:39:11.547Z,2.58
2023-01-31T13:41:43.040Z,4.57
2023-01-31T13:44:14.405Z,2.75
2023-01-31T13:47:05.305Z,3.90
2023-01-31T13:49:51.215Z,2.70
2023-01-31T13:52:34.472Z,3.47
2023-01-31T13:55:24.317Z,3.50
2023-01-31T13:58:08.733Z,1.67
2023-01-31T14:00:44.068Z,2.45
2023-01-31T14:03:16.741Z,3.17
2023-01-31T14:05:44.080Z,2.50
2023-01-31T14:08:30.314Z,2.47
2023-01-31T14:13:34.196Z,1.65
2023-01-31T14:16:07.049Z,2.05
2023-01-31T14:18:48.729Z,2.80
2023-01-31T14:21:31.605Z,1.65
2023-01-31T14:24:07.163Z,3.05
2023-01-31T14:26:49.386Z,2.00
2023-01-31T14:29:26.144Z,4.63
2023-01-31T14:31:58.658Z,1.80
2023-01-31T14:34:30.185Z,3.28
2023-01-31T14:37:19.459Z,2.38
2023-01-31T14:39:56.563Z,1.45
2023-01-31T14:42:43.846Z,2.58
2023-01-31T14:45:43.951Z,2.28
2023-01-31T14:48:16.441Z,1.05
2023-01-31T14:50:58.987Z,2.92
2023-01-31T14:53:54.493Z,5.05
2023-01-31T14:56:21.816Z,2.60
2023-01-31T14:58:53.299Z,2.08
2023-01-31T15:01:34.973Z,2.00
2023-01-31T15:04:03.810Z,3.00
2023-01-31T15:06:46.140Z,2.42
2023-01-31T15:09:21.518Z,2.17
2023-01-31T15:11:53.484Z,2.17
2023-01-31T15:14:36.049Z,3.05
2023-01-31T15:17:35.694Z,1.67
2023-01-31T15:20:18.723Z,1.90
2023-01-31T15:22:48.344Z,1.45
2023-01-31T15:25:33.376Z,2.95
2023-01-31T15:28:04.319Z,2.40
2023-01-31T15:30:35.904Z,1.83
2023-01-31T15:33:11.067Z,4.45
2023-01-31T15:35:54.670Z,1.48
2023-01-31T15:38:39.731Z,4.28
2023-01-31T15:41:23.041Z,2.08
2023-01-31T15:43:53.440Z,2.88
2023-01-31T15:46:35.507Z,4.63
2023-01-31T15:49:02.719Z,4.05
2023-01-31T15:51:33.143Z,2.30
2023-01-31T15:54:06.388Z,2.95
2023-01-31T15:56:38.521Z,2.13
2023-01-31T15:59:13.753Z,3.65
2023-01-31T16:01:48.543Z,1.42
2023-01-31T16:04:18.131Z,3.75
2023-01-31T16:06:47.087Z,2.55
2023-01-31T16:09:34.700Z,2.75
2023-01-31T16:12:03.863Z,2.63
2023-01-31T16:14:33.634Z,2.10
2023-01-31T16:17:05.518Z,2.28
2023-01-31T16:19:37.781Z,3.58
2023-01-31T16:22:29.441Z,4.07
2023-01-31T16:25:05.327Z,2.55
2023-01-31T16:30:16.913Z,2.78
2023-01-31T16:32:44.226Z,2.28
2023-01-31T16:35:25.205Z,2.75
2023-01-31T16:38:08.134Z,3.00
2023-01-31T16:40:45.919Z,2.88
2023-01-31T16:43:40.142Z,2.72
2023-01-31T16:46:38.264Z,2.40
2023-01-31T16:49:34.851Z,1.98
2023-01-31T16:53:08.270Z,1.38
2023-01-31T16:55:40.941Z,2.45
2023-01-31T17:01:41.043Z,3.63
2023-01-31T17:04:21.739Z,2.80
2023-01-31T17:06:55.388Z,5.43
2023-01-31T17:09:26.262Z,2.97
2023-01-31T17:12:17.947Z,2.95
2023-01-31T17:14:44.728Z,2.67
2023-01-31T17:17:16.350Z,4.72
2023-01-31T17:20:03.609Z,3.33
2023-01-31T17:22:33.707Z,2.15
2023-01-31T17:25:02.567Z,6.05
2023-01-31T17:27:39.083Z,3.50
2023-01-31T17:30:09.039Z,3.65
2023-01-31T17:32:42.416Z,3.17
2023-01-31T17:35:29.907Z,3.03
2023-01-31T17:38:43.134Z,2.47
2023-01-31T17:40:45.932Z,4.60
2023-01-31T17:43:20.896Z,4.22
2023-01-31T17:45:49.573Z,3.00
2023-01-31T17:48:26.546Z,2.25
2023-01-31T17:50:59.786Z,4.57
2023-01-31T17:53:37.345Z,6.80
2023-01-31T17:56:13.825Z,3.15
2023-01-31T17:58:40.627Z,7.13
2023-01-31T18:01:20.825Z,3.53
2023-01-31T18:03:53.531Z,6.82
2023-01-31T18:06:20.230Z,4.65
2023-01-31T18:08:53.638Z,5.35
2023-01-31T18:11:23.434Z,3.72
2023-01-31T18:13:52.733Z,3.90
2023-01-31T18:16:24.664Z,2.53
2023-01-31T18:18:53.431Z,2.90
2023-01-31T18:21:28.596Z,6.05
2023-01-31T18:24:04.391Z,4.93
2023-01-31T18:26:33.558Z,5.20
2023-01-31T18:29:00.211Z,4.88
2023-01-31T18:31:32.706Z,3.25
2023-01-31T18:34:01.053Z,6.63
2023-01-31T18:36:47.470Z,2.10
2023-01-31T18:39:18.957Z,3.25
2023-01-31T18:41:48.683Z,3.58
2023-01-31T18:44:21.697Z,3.78
2023-01-31T18:47:16.155Z,8.10
2023-01-31T18:50:05.167Z,4.57
2023-01-31T18:52:57.898Z,4.05
2023-01-31T18:55:40.173Z,3.33
2023-01-31T18:58:22.373Z,5.13
2023-01-31T19:01:00.438Z,4.70
2023-01-31T19:03:30.566Z,2.53
2023-01-31T19:06:36.297Z,3.42
2023-01-31T19:09:07.771Z,6.88
2023-01-31T19:11:47.657Z,3.28
2023-01-31T19:14:19.441Z,5.53
2023-01-31T19:16:52.451Z,4.07
2023-01-31T19:19:25.353Z,4.45
2023-01-31T19:21:59.037Z,4.15
2023-01-31T19:24:27.624Z,4.40
2023-01-31T19:26:59.707Z,4.80
2023-01-31T19:29:32.572Z,4.53
2023-01-31T19:32:08.178Z,6.07
2023-01-31T19:34:40.292Z,4.03
2023-01-31T19:37:07.172Z,3.92
2023-01-31T19:39:41.573Z,4.78
2023-01-31T19:42:10.775Z,6.43
2023-01-31T19:47:31.267Z,3.88
2023-01-31T19:50:00.537Z,3.40
2023-01-31T19:52:38.643Z,5.53
2023-01-31T19:55:08.582Z,3.97
2023-01-31T19:57:40.615Z,3.15
2023-01-31T20:00:10.203Z,4.80
2023-01-31T20:02:45.064Z,4.43
2023-01-31T20:05:21.142Z,2.88
2023-01-31T20:07:53.991Z,5.03
2023-01-31T20:10:20.967Z,3.70
2023-01-31T20:12:48.579Z,4.18
2023-01-31T20:15:15.901Z,3.78
2023-01-31T20:17:48.294Z,5.20
2023-01-31T20:20:21.960Z,4.20
2023-01-31T20:22:49.852Z,4.07
2023-01-31T20:25:20.125Z,4.63
2023-01-31T20:27:50.498Z,3.75
2023-01-31T20:30:22.137Z,8.57
2023-01-31T20:32:58.737Z,2.40
2023-01-31T20:35:42.661Z,5.85
2023-01-31T20:38:22.491Z,2.83
2023-01-31T20:40:56.012Z,3.13
2023-01-31T20:43:29.967Z,5.05
2023-01-31T20:46:20.452Z,7.50
2023-01-31T20:48:48.669Z,6.45
2023-01-31T20:51:19.310Z,5.60
2023-01-31T20:53:53.206Z,6.75
2023-01-31T20:56:29.335Z,5.07
2023-01-31T20:59:15.948Z,5.60
2023-01-31T21:01:45.466Z,2.45
2023-01-31T21:04:21.628Z,4.40
2023-01-31T21:06:48.569Z,3.53
2023-01-31T21:09:16.882Z,4.63
2023-01-31T21:11:44.539Z,5.13
2023-01-31T21:14:14.184Z,3.53
2023-01-31T21:16:43.823Z,4.82
2023-01-31T21:19:14.871Z,3.83
2023-01-31T21:21:45.358Z,6.45
2023-01-31T21:24:20.190Z,3.25
2023-01-31T21:26:47.172Z,5.10
2023-01-31T21:29:14.499Z,3.08
2023-01-31T21:31:45.867Z,3.35
2023-01-31T21:34:18.385Z,4.03
2023-01-31T21:36:48.485Z,3.88
2023-01-31T21:39:17.106Z,2.30
2023-01-31T21:42:06.695Z,3.85
2023-01-31T21:44:40.517Z,4.80
2023-01-31T21:47:13.642Z,3.38
2023-01-31T21:50:00.470Z,3.33
2023-01-31T21:52:37.271Z,6.35
2023-01-31T21:55:09.030Z,3.33
2023-01-31T21:57:40.110Z,4.22
2023-01-31T22:00:17.011Z,6.25
2023-01-31T22:02:45.931Z,4.57
2023-01-31T22:05:12.911Z,3.55
2023-01-31T22:07:46.195Z,7.80
2023-01-31T22:10:12.856Z,3.97
2023-01-31T22:12:40.498Z,2.80
2023-01-31T22:15:17.855Z,4.97
2023-01-31T22:17:47.709Z,4.88
2023-01-31T22:20:26.097Z,3.40
2023-01-31T22:23:06.164Z,3.17
2023-01-31T22:25:51.833Z,4.82
2023-01-31T22:28:28.488Z,3.75
2023-01-31T22:31:14.678Z,5.00
2023-01-31T22:33:45.115Z,5.20
2023-01-31T22:36:20.035Z,5.68
2023-01-31T22:39:00.366Z,4.77
2023-01-31T22:41:34.181Z,3.20
2023-01-31T22:44:12.145Z,6.57
2023-01-31T22:46:46.679Z,3.95
2023-01-31T22:49:17.969Z,4.40
2023-01-31T22:51:47.000Z,6.47
2023-01-31T22:54:26.020Z,5.80
2023-01-31T22:57:00.853Z,8.40
2023-01-31T22:59:36.605Z,9.77
2023-01-31T23:02:06.035Z,8.43
2023-01-31T23:04:38.467Z,10.82
2023-01-31T23:07:10.169Z,7.28
2023-01-31T23:09:39.327Z,7.50
2023-01-31T23:12:15.516Z,12.35
2023-01-31T23:14:42.852Z,11.82
2023-01-31T23:17:30.808Z,14.25
2023-01-31T23:20:01.653Z,9.82
2023-01-31T23:22:35.648Z,14.40
2023-01-31T23:25:15.800Z,12.70
2023-01-31T23:27:49.239Z,8.75
2023-01-31T23:30:21.961Z,12.65
2023-01-31T23:32:55.377Z,11.35
2023-01-31T23:35:32.155Z,15.60
2023-01-31T23:38:00.887Z,12.60
2023-01-31T23:40:32.899Z,17.52
2023-01-31T23:43:05.651Z,14.77
2023-01-31T23:45:37.258Z,12.68
2023-01-31T23:48:23.621Z,14.57
2023-01-31T23:53:31.459Z,12.30
2023-01-31T23:56:01.707Z,10.93
2023-01-31T23:58:33.336Z,9.63
